createdAt,value
2023-05-02T00:01:48.735Z,45.33
2023-05-02T00:04:16.288Z,45.09
2023-05-02T00:06:46.734Z,45.84
2023-05-02T00:09:15.663Z,45.60
2023-05-02T00:11:43.173Z,45.48
2023-05-02T00:14:10.918Z,46.02
2023-05-02T00:16:38.498Z,45.89
2023-05-02T00:19:05.690Z,46.59
2023-05-02T00:21:33.209Z,48.23
2023-05-02T00:24:00.493Z,47.59
2023-05-02T00:26:28.945Z,48.38
2023-05-02T00:28:56.151Z,47.94
2023-05-02T00:31:23.756Z,47.78
2023-05-02T00:33:50.949Z,48.43
2023-05-02T00:36:19.823Z,48.38
2023-05-02T00:38:47.102Z,49.92
2023-05-02T00:41:16.748Z,49.52
2023-05-02T00:43:44.060Z,49.39
2023-05-02T00:46:15.478Z,49.26
2023-05-02T00:48:42.776Z,49.01
2023-05-02T00:51:12.353Z,49.04
2023-05-02T00:53:41.073Z,49.33
2023-05-02T00:56:09.879Z,49.31
2023-05-02T00:58:40.605Z,49.66
2023-05-02T01:01:17.812Z,50.35
2023-05-02T01:04:00.372Z,50.50
2023-05-02T01:06:54.502Z,51.38
2023-05-02T01:09:55.316Z,50.57
2023-05-02T01:12:38.472Z,51.30
2023-05-02T01:15:07.960Z,52.44
2023-05-02T01:17:37.096Z,52.93
2023-05-02T01:20:08.734Z,52.70
2023-05-02T01:22:41.054Z,53.36
2023-05-02T01:25:17.111Z,52.43
2023-05-02T01:27:56.642Z,52.14
2023-05-02T01:30:26.854Z,51.81
2023-05-02T01:32:57.830Z,51.94
2023-05-02T01:35:27.629Z,52.18
2023-05-02T01:37:58.243Z,51.87
2023-05-02T01:40:26.698Z,51.41
2023-05-02T01:42:56.310Z,51.10
2023-05-02T01:45:24.573Z,50.62
2023-05-02T01:47:54.030Z,50.01
2023-05-02T01:50:24.676Z,49.29
2023-05-02T01:52:54.179Z,49.26
2023-05-02T01:55:22.193Z,48.75
2023-05-02T01:57:53.096Z,48.66
2023-05-02T02:00:21.645Z,48.11
2023-05-02T02:02:52.267Z,47.56
2023-05-02T02:05:22.460Z,48.19
2023-05-02T02:07:49.994Z,47.59
2023-05-02T02:10:18.643Z,47.60
2023-05-02T02:12:53.154Z,47.46
2023-05-02T02:15:29.091Z,47.54
2023-05-02T02:18:10.060Z,47.73
2023-05-02T02:20:39.055Z,47.95
2023-05-02T02:23:08.727Z,48.08
2023-05-02T02:25:36.530Z,47.85
2023-05-02T02:28:04.461Z,47.92
2023-05-02T02:30:31.795Z,47.91
2023-05-02T02:32:59.419Z,47.89
2023-05-02T02:35:34.056Z,48.15
2023-05-02T02:38:23.518Z,47.81
2023-05-02T02:40:57.736Z,47.61
2023-05-02T02:43:34.096Z,47.68
2023-05-02T02:46:26.124Z,47.72
2023-05-02T02:49:04.039Z,47.96
2023-05-02T02:51:50.920Z,48.40
2023-05-02T02:54:27.631Z,47.90
2023-05-02T02:57:04.784Z,48.03
2023-05-02T02:59:36.529Z,47.90
2023-05-02T03:02:09.436Z,48.07
2023-05-02T03:04:42.203Z,48.19
2023-05-02T03:07:09.700Z,48.14
2023-05-02T03:09:47.882Z,47.99
2023-05-02T03:12:21.238Z,48.63
2023-05-02T03:14:50.347Z,48.21
2023-05-02T03:17:18.277Z,48.38
2023-05-02T03:19:47.411Z,48.68
2023-05-02T03:22:14.850Z,48.31
2023-05-02T03:24:42.409Z,47.89
2023-05-02T03:27:12.265Z,47.80
2023-05-02T03:29:42.383Z,47.65
2023-05-02T03:32:11.584Z,47.88
2023-05-02T03:34:41.861Z,47.32
2023-05-02T03:37:09.847Z,47.42
2023-05-02T03:39:37.413Z,47.44
2023-05-02T03:42:05.725Z,47.13
2023-05-02T03:44:33.283Z,47.25
2023-05-02T03:47:00.532Z,47.07
2023-05-02T03:49:28.987Z,47.06
2023-05-02T03:51:56.742Z,47.11
2023-05-02T03:54:32.813Z,47.73
2023-05-02T03:57:01.176Z,46.69
2023-05-02T03:59:35.395Z,46.43
2023-05-02T04:02:11.484Z,46.20
2023-05-02T04:04:44.000Z,45.92
2023-05-02T04:07:18.486Z,45.58
2023-05-02T04:09:50.180Z,45.62
2023-05-02T04:12:17.541Z,45.77
2023-05-02T04:14:48.849Z,45.48
2023-05-02T04:17:16.748Z,45.42
2023-05-02T04:19:48.087Z,45.64
2023-05-02T04:22:16.094Z,45.23
2023-05-02T04:24:48.058Z,45.44
2023-05-02T04:27:16.092Z,45.60
2023-05-02T04:29:48.915Z,45.93
2023-05-02T04:32:17.194Z,44.91
2023-05-02T04:34:45.389Z,45.13
2023-05-02T04:37:12.552Z,45.72
2023-05-02T04:39:40.955Z,45.22
2023-05-02T04:42:14.249Z,44.61
2023-05-02T04:44:50.259Z,44.10
2023-05-02T04:47:17.818Z,43.68
2023-05-02T04:49:46.338Z,42.77
2023-05-02T04:52:13.686Z,41.14
2023-05-02T04:54:41.370Z,40.85
2023-05-02T04:57:10.258Z,39.18
2023-05-02T04:59:42.263Z,37.67
2023-05-02T05:02:12.718Z,34.85
2023-05-02T05:04:40.871Z,34.13
2023-05-02T05:07:08.831Z,33.55
2023-05-02T05:09:36.461Z,33.77
2023-05-02T05:12:03.957Z,35.14
2023-05-02T05:14:34.970Z,35.85
2023-05-02T05:17:02.590Z,37.23
2023-05-02T05:19:30.290Z,37.39
2023-05-02T05:21:58.341Z,37.18
2023-05-02T05:24:25.945Z,36.46
2023-05-02T05:26:55.950Z,37.01
2023-05-02T05:29:23.697Z,37.08
2023-05-02T05:31:51.132Z,36.50
2023-05-02T05:34:21.167Z,34.85
2023-05-02T05:36:49.913Z,30.66
2023-05-02T05:39:18.181Z,29.36
2023-05-02T05:41:48.434Z,29.05
2023-05-02T05:44:16.154Z,31.67
2023-05-02T05:46:44.488Z,32.74
2023-05-02T05:49:12.952Z,33.37
2023-05-02T05:51:42.592Z,34.95
2023-05-02T05:54:10.302Z,36.37
2023-05-02T05:56:38.586Z,37.18
2023-05-02T05:59:10.749Z,37.14
2023-05-02T06:01:38.500Z,37.45
2023-05-02T06:04:07.613Z,38.28
2023-05-02T06:06:38.165Z,39.04
2023-05-02T06:09:06.033Z,39.68
2023-05-02T06:11:33.771Z,39.37
2023-05-02T06:14:01.914Z,39.22
2023-05-02T06:16:29.292Z,40.56
2023-05-02T06:18:56.947Z,40.53
2023-05-02T06:21:24.282Z,41.30
2023-05-02T06:23:52.359Z,40.44
2023-05-02T06:26:19.522Z,41.79
2023-05-02T06:28:46.997Z,40.90
2023-05-02T06:31:14.619Z,40.92
2023-05-02T06:33:43.020Z,41.16
2023-05-02T06:36:10.319Z,40.39
2023-05-02T06:38:37.831Z,41.23
2023-05-02T06:41:05.299Z,40.46
2023-05-02T06:43:33.914Z,42.32
2023-05-02T06:46:01.170Z,41.91
2023-05-02T06:48:28.783Z,41.63
2023-05-02T06:50:56.036Z,41.84
2023-05-02T06:53:23.690Z,41.35
2023-05-02T06:55:51.153Z,42.05
2023-05-02T06:58:18.745Z,41.33
2023-05-02T07:00:46.075Z,41.63
2023-05-02T07:03:13.777Z,41.47
2023-05-02T07:05:41.373Z,42.59
2023-05-02T07:08:09.393Z,42.30
2023-05-02T07:10:37.077Z,41.67
2023-05-02T07:13:04.577Z,42.19
2023-05-02T07:15:31.768Z,42.01
2023-05-02T07:17:59.429Z,41.31
2023-05-02T07:20:26.753Z,40.52
2023-05-02T07:22:54.308Z,39.68
2023-05-02T07:25:21.610Z,39.17
2023-05-02T07:27:49.181Z,38.79
2023-05-02T07:30:16.357Z,38.07
2023-05-02T07:32:43.992Z,39.21
2023-05-02T07:35:11.155Z,38.02
2023-05-02T07:37:39.022Z,38.29
2023-05-02T07:40:08.027Z,37.48
2023-05-02T07:42:36.376Z,37.40
2023-05-02T07:45:03.691Z,37.61
2023-05-02T07:47:32.394Z,36.40
2023-05-02T07:49:59.949Z,36.41
2023-05-02T07:52:27.842Z,36.03
2023-05-02T07:54:55.144Z,34.58
2023-05-02T07:57:23.673Z,33.17
2023-05-02T07:59:51.175Z,32.66
2023-05-02T08:02:20.356Z,31.02
2023-05-02T08:04:48.180Z,28.75
2023-05-02T08:07:16.316Z,27.00
2023-05-02T08:09:43.554Z,25.48
2023-05-02T08:12:11.028Z,24.62
2023-05-02T08:14:38.480Z,22.59
2023-05-02T08:17:05.994Z,20.84
2023-05-02T08:19:33.243Z,19.25
2023-05-02T08:22:00.956Z,18.13
2023-05-02T08:24:28.182Z,18.66
2023-05-02T08:26:55.630Z,16.82
2023-05-02T08:29:24.402Z,16.47
2023-05-02T08:31:51.924Z,17.12
2023-05-02T08:34:19.216Z,17.36
2023-05-02T08:36:47.417Z,17.92
2023-05-02T08:39:14.759Z,17.28
2023-05-02T08:41:42.329Z,17.45
2023-05-02T08:44:09.619Z,15.77
2023-05-02T08:46:42.215Z,16.12
2023-05-02T08:49:15.961Z,16.33
2023-05-02T08:51:45.480Z,15.81
2023-05-02T08:54:17.100Z,15.24
2023-05-02T08:56:45.271Z,14.35
2023-05-02T08:59:12.489Z,15.84
2023-05-02T09:01:44.341Z,15.54
2023-05-02T09:04:12.252Z,14.58
2023-05-02T09:06:39.812Z,13.90
2023-05-02T09:09:08.533Z,14.39
2023-05-02T09:11:37.584Z,15.47
2023-05-02T09:14:15.466Z,15.51
2023-05-02T09:16:43.575Z,15.61
2023-05-02T09:19:11.391Z,16.05
2023-05-02T09:21:41.288Z,16.23
2023-05-02T09:24:22.374Z,15.94
2023-05-02T09:27:03.666Z,15.90
2023-05-02T09:29:36.063Z,17.44
2023-05-02T09:32:05.325Z,17.69
2023-05-02T09:34:32.870Z,18.85
2023-05-02T09:37:00.506Z,22.77
2023-05-02T09:39:31.641Z,20.85
2023-05-02T09:41:59.516Z,21.54
2023-05-02T09:44:27.904Z,23.61
2023-05-02T09:46:57.725Z,25.10
2023-05-02T09:49:45.877Z,27.88
2023-05-02T09:52:16.367Z,30.29
2023-05-02T09:54:46.480Z,32.23
2023-05-02T09:57:14.587Z,33.47
2023-05-02T09:59:42.518Z,33.64
2023-05-02T10:02:12.157Z,35.93
2023-05-02T10:04:40.627Z,36.08
2023-05-02T10:07:13.238Z,36.90
2023-05-02T10:09:44.503Z,35.75
2023-05-02T10:12:16.835Z,35.86
2023-05-02T10:14:50.911Z,35.90
2023-05-02T10:17:31.181Z,34.23
2023-05-02T10:20:05.168Z,33.23
2023-05-02T10:22:36.933Z,30.82
2023-05-02T10:25:04.512Z,31.85
2023-05-02T10:27:33.063Z,32.32
2023-05-02T10:30:01.318Z,31.01
2023-05-02T10:32:29.728Z,30.27
2023-05-02T10:34:58.396Z,30.64
2023-05-02T10:37:28.118Z,30.82
2023-05-02T10:39:55.491Z,31.52
2023-05-02T10:42:23.822Z,33.29
2023-05-02T10:44:51.308Z,33.75
2023-05-02T10:47:18.972Z,35.46
2023-05-02T10:49:53.775Z,35.48
2023-05-02T10:52:39.079Z,36.73
2023-05-02T10:55:16.417Z,38.05
2023-05-02T10:57:59.371Z,36.19
2023-05-02T11:00:29.678Z,36.26
2023-05-02T11:02:57.723Z,36.69
2023-05-02T11:05:26.475Z,38.32
2023-05-02T11:08:15.929Z,36.42
2023-05-02T11:10:46.095Z,36.18
2023-05-02T11:13:14.159Z,36.47
2023-05-02T11:15:41.418Z,38.12
2023-05-02T11:18:12.762Z,40.69
2023-05-02T11:20:42.301Z,41.66
2023-05-02T11:23:16.376Z,43.89
2023-05-02T11:25:48.633Z,44.35
2023-05-02T11:28:34.603Z,45.10
2023-05-02T11:31:01.877Z,47.51
2023-05-02T11:33:29.709Z,47.20
2023-05-02T11:35:58.255Z,46.71
2023-05-02T11:38:27.539Z,48.63
2023-05-02T11:41:04.562Z,48.26
2023-05-02T11:43:32.755Z,50.01
2023-05-02T11:46:02.296Z,50.48
2023-05-02T11:48:31.190Z,51.45
2023-05-02T11:51:05.194Z,51.65
2023-05-02T11:53:33.687Z,54.40
2023-05-02T11:56:04.377Z,55.71
2023-05-02T11:58:33.761Z,58.20
2023-05-02T12:01:15.572Z,62.60
2023-05-02T12:03:45.033Z,60.60
2023-05-02T12:06:15.131Z,60.03
2023-05-02T12:08:44.397Z,58.55
2023-05-02T12:11:16.785Z,62.30
2023-05-02T12:13:47.253Z,58.97
2023-05-02T12:16:14.949Z,59.25
2023-05-02T12:18:43.294Z,57.61
2023-05-02T12:21:10.716Z,56.39
2023-05-02T12:23:40.110Z,56.21
2023-05-02T12:26:18.119Z,57.55
2023-05-02T12:28:50.957Z,59.26
2023-05-02T12:31:18.508Z,58.76
2023-05-02T12:33:51.843Z,56.31
2023-05-02T12:36:19.685Z,57.58
2023-05-02T12:38:57.200Z,59.16
2023-05-02T12:41:38.641Z,60.09
2023-05-02T12:44:07.964Z,61.11
2023-05-02T12:46:36.574Z,58.24
2023-05-02T12:49:14.095Z,55.33
2023-05-02T12:51:41.498Z,55.31
2023-05-02T12:54:08.995Z,57.05
2023-05-02T12:56:40.599Z,54.05
2023-05-02T12:59:08.527Z,53.28
2023-05-02T13:01:36.178Z,54.20
2023-05-02T13:04:04.233Z,56.05
2023-05-02T13:06:31.747Z,57.85
2023-05-02T13:08:59.371Z,57.79
2023-05-02T13:11:26.824Z,56.98
2023-05-02T13:13:54.361Z,56.43
2023-05-02T13:16:21.855Z,55.28
2023-05-02T13:18:49.533Z,54.08
2023-05-02T13:21:17.103Z,54.57
2023-05-02T13:23:48.005Z,53.18
2023-05-02T13:26:15.273Z,53.90
2023-05-02T13:28:42.794Z,53.93
2023-05-02T13:31:10.073Z,53.12
2023-05-02T13:33:37.652Z,50.12
2023-05-02T13:36:05.226Z,49.97
2023-05-02T13:38:34.059Z,50.30
2023-05-02T13:41:01.546Z,49.02
2023-05-02T13:43:29.204Z,49.96
2023-05-02T13:45:56.644Z,51.63
2023-05-02T13:48:24.198Z,51.78
2023-05-02T13:50:51.510Z,51.93
2023-05-02T13:53:19.114Z,50.83
2023-05-02T13:55:46.411Z,50.60
2023-05-02T13:58:14.634Z,50.38
2023-05-02T14:00:42.017Z,48.70
2023-05-02T14:03:11.464Z,48.37
2023-05-02T14:05:43.585Z,48.92
2023-05-02T14:08:11.838Z,48.00
2023-05-02T14:10:39.240Z,49.27
2023-05-02T14:13:06.878Z,49.86
2023-05-02T14:15:34.189Z,49.75
2023-05-02T14:18:01.963Z,48.53
2023-05-02T14:20:29.522Z,48.77
2023-05-02T14:22:56.983Z,47.90
2023-05-02T14:25:24.224Z,46.87
2023-05-02T14:27:51.825Z,46.98
2023-05-02T14:30:19.032Z,46.05
2023-05-02T14:32:46.611Z,45.63
2023-05-02T14:35:13.849Z,46.45
2023-05-02T14:37:45.034Z,46.62
2023-05-02T14:40:13.048Z,45.18
2023-05-02T14:42:41.300Z,45.96
2023-05-02T14:45:12.429Z,45.81
2023-05-02T14:47:40.056Z,46.19
2023-05-02T14:50:08.040Z,45.52
2023-05-02T14:52:35.701Z,45.98
2023-05-02T14:55:03.068Z,45.80
2023-05-02T14:57:31.079Z,45.04
2023-05-02T14:59:58.229Z,43.71
2023-05-02T15:02:26.108Z,42.33
2023-05-02T15:04:53.484Z,41.29
2023-05-02T15:07:21.773Z,40.89
2023-05-02T15:09:49.128Z,39.83
2023-05-02T15:12:16.782Z,39.01
2023-05-02T15:14:44.000Z,38.56
2023-05-02T15:17:11.662Z,39.59
2023-05-02T15:19:39.003Z,51.38
2023-05-02T15:22:06.519Z,56.34
2023-05-02T15:24:33.803Z,60.13
2023-05-02T15:27:01.841Z,61.31
2023-05-02T15:29:29.196Z,63.16
2023-05-02T15:31:56.844Z,64.05
2023-05-02T15:34:24.114Z,66.00
2023-05-02T15:36:52.454Z,70.49
2023-05-02T15:39:19.868Z,74.38
2023-05-02T15:41:48.003Z,76.30
2023-05-02T15:44:15.355Z,74.38
2023-05-02T15:46:47.254Z,75.57
2023-05-02T15:49:15.312Z,77.93
2023-05-02T15:51:42.928Z,75.85
2023-05-02T15:54:10.181Z,74.09
2023-05-02T15:56:37.969Z,74.09
2023-05-02T15:59:05.223Z,73.34
2023-05-02T16:01:32.766Z,72.51
2023-05-02T16:04:00.252Z,71.39
2023-05-02T16:06:27.921Z,69.96
2023-05-02T16:08:56.025Z,71.16
2023-05-02T16:11:23.534Z,70.14
2023-05-02T16:13:50.786Z,68.71
2023-05-02T16:16:18.383Z,68.00
2023-05-02T16:18:45.749Z,70.01
2023-05-02T16:21:13.317Z,68.51
2023-05-02T16:23:40.700Z,67.67
2023-05-02T16:26:08.384Z,66.63
2023-05-02T16:28:35.624Z,66.31
2023-05-02T16:31:11.419Z,65.45
2023-05-02T16:33:39.552Z,65.66
2023-05-02T16:36:07.604Z,64.84
2023-05-02T16:38:36.358Z,65.39
2023-05-02T16:41:05.612Z,64.71
2023-05-02T16:43:33.276Z,64.01
2023-05-02T16:46:02.117Z,63.57
2023-05-02T16:48:29.533Z,63.87
2023-05-02T16:50:57.237Z,65.06
2023-05-02T16:53:25.266Z,65.05
2023-05-02T16:55:53.484Z,64.78
2023-05-02T16:58:20.702Z,64.65
2023-05-02T17:00:48.235Z,64.36
2023-05-02T17:03:15.803Z,63.21
2023-05-02T17:05:43.417Z,62.31
2023-05-02T17:08:11.072Z,60.84
2023-05-02T17:10:38.764Z,61.12
2023-05-02T17:13:06.739Z,60.70
2023-05-02T17:15:40.109Z,60.57
2023-05-02T17:18:07.494Z,60.93
2023-05-02T17:20:36.094Z,60.04
2023-05-02T17:23:03.925Z,59.78
2023-05-02T17:25:31.582Z,59.97
2023-05-02T17:27:58.848Z,60.37
2023-05-02T17:30:27.584Z,60.10
2023-05-02T17:32:55.237Z,60.02
2023-05-02T17:35:22.855Z,63.04
2023-05-02T17:37:50.058Z,62.33
2023-05-02T17:40:17.673Z,63.14
2023-05-02T17:42:47.608Z,63.05
2023-05-02T17:45:15.194Z,63.24
2023-05-02T17:47:42.584Z,63.56
2023-05-02T17:50:10.449Z,64.27
2023-05-02T17:52:38.898Z,65.20
2023-05-02T17:55:07.156Z,66.24
2023-05-02T17:57:34.349Z,65.02
2023-05-02T18:00:04.614Z,65.17
2023-05-02T18:02:33.634Z,64.68
2023-05-02T18:05:01.732Z,64.40
2023-05-02T18:07:30.258Z,64.55
2023-05-02T18:09:57.946Z,64.88
2023-05-02T18:12:25.182Z,64.65
2023-05-02T18:14:52.981Z,65.05
2023-05-02T18:17:21.369Z,65.43
2023-05-02T18:19:50.217Z,65.51
2023-05-02T18:22:19.754Z,65.88
2023-05-02T18:24:48.733Z,66.29
2023-05-02T18:27:17.184Z,67.16
2023-05-02T18:29:44.807Z,66.18
2023-05-02T18:32:12.164Z,67.73
2023-05-02T18:34:39.727Z,66.82
2023-05-02T18:37:07.385Z,67.41
2023-05-02T18:39:35.422Z,67.55
2023-05-02T18:42:03.617Z,67.88
2023-05-02T18:44:31.942Z,68.23
2023-05-02T18:46:59.223Z,68.79
2023-05-02T18:49:27.116Z,69.83
2023-05-02T18:51:55.238Z,71.42
2023-05-02T18:54:26.556Z,71.51
2023-05-02T18:56:53.764Z,71.85
2023-05-02T18:59:21.309Z,72.58
2023-05-02T19:01:48.843Z,73.63
2023-05-02T19:04:16.446Z,73.56
2023-05-02T19:06:44.291Z,73.67
2023-05-02T19:09:15.744Z,74.52
2023-05-02T19:11:43.366Z,74.64
2023-05-02T19:14:11.921Z,74.97
2023-05-02T19:16:42.242Z,75.00
2023-05-02T19:19:09.572Z,75.52
2023-05-02T19:21:37.217Z,75.47
2023-05-02T19:24:04.755Z,75.73
2023-05-02T19:26:32.371Z,76.19
2023-05-02T19:28:59.720Z,76.69
2023-05-02T19:31:28.152Z,79.22
2023-05-02T19:33:55.601Z,78.58
2023-05-02T19:36:24.549Z,78.63
2023-05-02T19:38:54.139Z,79.03
2023-05-02T19:41:25.154Z,79.34
2023-05-02T19:43:52.955Z,79.68
2023-05-02T19:46:20.622Z,79.12
2023-05-02T19:48:47.887Z,79.82
2023-05-02T19:51:15.752Z,79.84
2023-05-02T19:53:43.056Z,80.70
2023-05-02T19:56:11.129Z,81.26
2023-05-02T19:58:38.367Z,81.40
2023-05-02T20:01:05.946Z,82.05
2023-05-02T20:03:34.887Z,81.83
2023-05-02T20:06:02.861Z,82.35
2023-05-02T20:08:31.663Z,81.55
2023-05-02T20:10:59.257Z,82.10
2023-05-02T20:13:26.541Z,82.91
2023-05-02T20:15:54.936Z,83.24
2023-05-02T20:18:22.249Z,83.21
2023-05-02T20:20:49.813Z,83.66
2023-05-02T20:23:17.181Z,83.76
2023-05-02T20:25:45.098Z,85.18
2023-05-02T20:28:12.580Z,85.29
2023-05-02T20:30:40.246Z,86.22
2023-05-02T20:33:15.585Z,85.51
2023-05-02T20:35:45.307Z,85.54
2023-05-02T20:38:12.570Z,86.55
2023-05-02T20:40:42.725Z,86.92
2023-05-02T20:43:10.225Z,86.94
2023-05-02T20:45:38.819Z,86.98
2023-05-02T20:48:06.802Z,87.15
2023-05-02T20:50:34.548Z,87.41
2023-05-02T20:53:01.967Z,87.12
2023-05-02T20:55:29.737Z,87.59
2023-05-02T20:57:57.037Z,87.74
2023-05-02T21:00:24.583Z,86.71
2023-05-02T21:02:51.986Z,87.01
2023-05-02T21:05:19.599Z,88.28
2023-05-02T21:07:46.847Z,86.89
2023-05-02T21:10:15.098Z,86.83
2023-05-02T21:12:42.407Z,87.50
2023-05-02T21:15:10.473Z,88.60
2023-05-02T21:17:39.915Z,87.68
2023-05-02T21:20:08.141Z,87.67
2023-05-02T21:22:35.364Z,87.15
2023-05-02T21:25:03.100Z,86.65
2023-05-02T21:27:30.443Z,86.96
2023-05-02T21:29:58.040Z,86.76
2023-05-02T21:32:26.040Z,88.66
2023-05-02T21:34:53.795Z,89.21
2023-05-02T21:37:21.191Z,88.98
2023-05-02T21:39:48.720Z,88.79
2023-05-02T21:42:15.914Z,88.98
2023-05-02T21:44:43.455Z,89.08
2023-05-02T21:47:10.740Z,89.13
2023-05-02T21:49:38.289Z,90.05
2023-05-02T21:52:05.553Z,90.17
2023-05-02T21:54:33.482Z,89.54
2023-05-02T21:57:02.786Z,88.16
2023-05-02T21:59:30.262Z,87.74
2023-05-02T22:01:57.720Z,88.45
2023-05-02T22:04:25.329Z,87.78
2023-05-02T22:06:53.263Z,87.04
2023-05-02T22:09:21.712Z,86.22
2023-05-02T22:11:48.964Z,87.01
2023-05-02T22:14:16.621Z,86.09
2023-05-02T22:16:43.863Z,84.98
2023-05-02T22:19:11.990Z,85.70
2023-05-02T22:21:39.212Z,84.97
2023-05-02T22:24:06.812Z,83.98
2023-05-02T22:26:34.047Z,83.06
2023-05-02T22:29:01.562Z,82.91
2023-05-02T22:31:28.830Z,84.40
2023-05-02T22:33:56.463Z,84.17
2023-05-02T22:36:23.647Z,84.30
2023-05-02T22:38:51.544Z,83.90
2023-05-02T22:41:18.753Z,84.03
2023-05-02T22:43:46.264Z,82.86
2023-05-02T22:46:13.443Z,82.57
2023-05-02T22:48:41.054Z,82.03
2023-05-02T22:51:08.386Z,82.84
2023-05-02T22:53:35.851Z,83.01
2023-05-02T22:56:03.518Z,84.15
2023-05-02T22:58:30.983Z,80.50
2023-05-02T23:00:58.254Z,81.90
2023-05-02T23:03:26.203Z,82.22
2023-05-02T23:05:53.576Z,82.43
2023-05-02T23:08:21.255Z,83.03
2023-05-02T23:10:48.429Z,82.91
2023-05-02T23:13:16.133Z,83.06
2023-05-02T23:15:43.749Z,78.78
2023-05-02T23:18:11.430Z,77.90
2023-05-02T23:20:38.632Z,78.39
2023-05-02T23:23:06.237Z,78.81
2023-05-02T23:25:35.046Z,80.32
2023-05-02T23:28:02.619Z,80.94
2023-05-02T23:30:31.386Z,82.62
2023-05-02T23:33:00.126Z,83.57
2023-05-02T23:35:27.568Z,84.54
2023-05-02T23:37:55.244Z,84.46
2023-05-02T23:40:22.470Z,84.21
2023-05-02T23:42:49.963Z,84.25
2023-05-02T23:45:17.256Z,83.55
2023-05-02T23:47:44.763Z,83.78
2023-05-02T23:50:12.097Z,84.77
2023-05-02T23:52:39.607Z,83.63
2023-05-02T23:55:10.764Z,84.24
2023-05-02T23:57:38.605Z,84.78
